Time;durP1;ratioP1;P1;durP2;ratioP2;P2;SDS_P1;SDS_P2;PMS_P1;PMS_P2;Temp;Humidity;BMP_temperature;BMP_pressure;BME280_temperature;BME280_humidity;BME280_pressure;Samples;Min_cycle;Max_cycle;Signal;HPM_P1;HPM_P2
2024/02/20 00:03:01;;;;;;;1.35;0.80;;;11.50;99.90;;;;;;10100133;28;20017;-67
2024/02/20 00:07:52;;;;;;;1.50;0.95;;;11.50;99.90;;;;;;10104705;28;20421;-68
2024/02/20 00:12:44;;;;;;;1.63;0.80;;;11.50;99.90;;;;;;10098968;28;20561;-66
2024/02/20 00:17:36;;;;;;;1.80;1.20;;;11.50;99.90;;;;;;10100092;28;20068;-67
2024/02/20 00:22:27;;;;;;;1.92;1.10;;;11.50;99.90;;;;;;10096121;28;20024;-67
2024/02/20 00:27:18;;;;;;;1.63;1.02;;;11.40;99.90;;;;;;10095144;28;20057;-66
2024/02/20 00:32:08;;;;;;;2.22;1.20;;;11.40;99.90;;;;;;10094027;28;20406;-67
2024/02/20 00:36:59;;;;;;;2.50;1.42;;;11.40;99.90;;;;;;10093275;28;20041;-66
2024/02/20 00:41:49;;;;;;;1.95;1.23;;;11.40;99.90;;;;;;10097926;28;20025;-66
2024/02/20 00:46:40;;;;;;;2.60;1.30;;;11.40;99.90;;;;;;10097459;28;20068;-66
2024/02/20 00:51:31;;;;;;;2.88;1.27;;;11.30;99.90;;;;;;10092513;28;20029;-67
2024/02/20 00:56:21;;;;;;;2.30;1.10;;;11.40;99.90;;;;;;10098851;28;20127;-67
2024/02/20 01:01:13;;;;;;;4.13;2.30;;;11.20;99.90;;;;;;10077401;28;20048;-68
2024/02/20 01:06:06;;;;;;;2.17;1.10;;;11.20;99.90;;;;;;10094326;28;20167;-68
2024/02/20 01:10:56;;;;;;;2.03;1.25;;;11.20;99.90;;;;;;10094623;28;20044;-66
2024/02/20 01:15:47;;;;;;;2.78;1.38;;;11.10;99.90;;;;;;10097068;28;20040;-67
2024/02/20 01:20:39;;;;;;;3.08;1.48;;;11.10;99.90;;;;;;10096198;28;20029;-67
2024/02/20 01:25:30;;;;;;;2.45;1.25;;;11.00;99.90;;;;;;10096278;28;20017;-67
2024/02/20 01:30:21;;;;;;;4.38;1.75;;;11.00;99.90;;;;;;10095624;28;20021;-69
2024/02/20 01:35:12;;;;;;;2.85;1.70;;;11.00;99.90;;;;;;10096378;28;20712;-68
2024/02/20 01:40:03;;;;;;;4.28;1.40;;;10.90;99.90;;;;;;10096819;28;20040;-68
2024/02/20 01:44:53;;;;;;;2.00;1.10;;;10.90;99.90;;;;;;10096194;28;20124;-67
2024/02/20 01:49:45;;;;;;;2.30;1.20;;;10.90;99.90;;;;;;10096008;28;20112;-67
2024/02/20 01:54:36;;;;;;;2.90;1.27;;;10.90;99.90;;;;;;10096273;28;20032;-68
2024/02/20 01:59:27;;;;;;;4.00;1.45;;;10.90;99.90;;;;;;10096003;28;20044;-68
2024/02/20 02:04:18;;;;;;;2.15;1.35;;;10.90;99.90;;;;;;10103614;28;20223;-69
2024/02/20 02:09:09;;;;;;;3.78;1.50;;;10.90;99.90;;;;;;10103431;28;20025;-69
2024/02/20 02:14:00;;;;;;;1.92;1.33;;;10.80;99.90;;;;;;10103895;28;20522;-69
2024/02/20 02:18:50;;;;;;;3.10;2.25;;;10.80;99.90;;;;;;10103389;28;20120;-68
2024/02/20 02:23:41;;;;;;;4.45;1.67;;;10.80;99.90;;;;;;10083835;28;20124;-69
2024/02/20 02:28:32;;;;;;;4.88;1.83;;;10.90;99.90;;;;;;10102518;28;20053;-68
2024/02/20 02:33:22;;;;;;;3.63;1.70;;;10.70;99.90;;;;;;10102935;28;20083;-69
2024/02/20 02:38:13;;;;;;;2.90;1.15;;;10.80;99.90;;;;;;10104217;28;20029;-69
2024/02/20 02:43:04;;;;;;;2.72;1.75;;;10.80;99.90;;;;;;10102321;28;20032;-69
2024/02/20 02:47:55;;;;;;;3.22;1.35;;;10.80;99.90;;;;;;10084552;28;20037;-70
2024/02/20 02:52:46;;;;;;;2.00;1.10;;;10.70;99.90;;;;;;10102291;28;20056;-69
2024/02/20 02:57:37;;;;;;;2.22;1.75;;;10.70;99.90;;;;;;10084802;28;20140;-70
2024/02/20 03:02:27;;;;;;;5.93;1.88;;;10.70;99.90;;;;;;10101495;28;20025;-70
2024/02/20 03:07:19;;;;;;;5.30;1.60;;;10.70;99.90;;;;;;10101670;28;20795;-69
2024/02/20 03:12:09;;;;;;;3.28;1.85;;;10.70;99.90;;;;;;10082515;28;20341;-69
2024/02/20 03:17:04;;;;;;;3.92;1.45;;;10.60;99.90;;;;;;10101628;28;20626;-69
2024/02/20 03:21:55;;;;;;;1.77;1.42;;;10.60;99.90;;;;;;10099199;28;20033;-68
2024/02/20 03:26:46;;;;;;;4.07;1.75;;;10.70;99.90;;;;;;10083195;28;21317;-70
2024/02/20 03:31:36;;;;;;;5.05;1.35;;;10.60;99.90;;;;;;10082954;28;20024;-68
2024/02/20 03:36:30;;;;;;;1.35;1.05;;;10.50;99.90;;;;;;10100174;28;20044;-70
2024/02/20 03:41:21;;;;;;;5.15;1.65;;;10.60;99.90;;;;;;10100406;28;20063;-69
2024/02/20 03:46:11;;;;;;;3.08;1.80;;;10.60;99.90;;;;;;10100528;28;20040;-68
2024/02/20 03:51:04;;;;;;;1.85;1.42;;;10.50;99.90;;;;;;10100148;28;20021;-69
2024/02/20 03:56:00;;;;;;;2.97;1.40;;;10.40;99.90;;;;;;10099566;28;20049;-68
2024/02/20 04:00:51;;;;;;;3.42;1.30;;;10.40;99.90;;;;;;10099370;28;20029;-68
2024/02/20 04:05:41;;;;;;;3.83;1.27;;;10.40;99.90;;;;;;10098573;28;20017;-68
2024/02/20 04:10:36;;;;;;;2.92;1.35;;;10.40;99.90;;;;;;10099509;28;20061;-68
2024/02/20 04:15:27;;;;;;;3.42;1.52;;;10.40;99.90;;;;;;10097366;28;20112;-68
2024/02/20 04:20:17;;;;;;;1.58;1.20;;;10.40;99.90;;;;;;10098433;28;20140;-68
2024/02/20 04:25:08;;;;;;;3.58;1.70;;;10.40;99.90;;;;;;10098617;28;20773;-69
2024/02/20 04:29:59;;;;;;;4.93;1.77;;;10.40;99.90;;;;;;10098281;28;20094;-68
2024/02/20 04:34:50;;;;;;;3.17;1.40;;;10.30;99.90;;;;;;10098295;28;20075;-67
2024/02/20 04:39:43;;;;;;;3.00;1.42;;;10.30;99.90;;;;;;10097272;28;20531;-70
2024/02/20 04:44:37;;;;;;;2.70;1.33;;;10.40;99.90;;;;;;10097924;28;20017;-71
2024/02/20 04:49:28;;;;;;;5.45;1.45;;;10.40;99.90;;;;;;10079776;28;20037;-69
2024/02/20 04:54:18;;;;;;;4.40;2.03;;;10.40;99.90;;;;;;10096243;28;20029;-69
2024/02/20 04:59:09;;;;;;;4.63;1.63;;;10.30;99.90;;;;;;10097204;28;20572;-69
2024/02/20 05:04:00;;;;;;;3.20;2.65;;;10.30;99.90;;;;;;10079123;28;20029;-70
2024/02/20 05:08:51;;;;;;;4.53;1.55;;;10.30;99.90;;;;;;10079293;28;20116;-70
2024/02/20 05:13:42;;;;;;;4.38;1.35;;;10.20;99.90;;;;;;10099074;28;20608;-70
2024/02/20 05:18:33;;;;;;;3.05;1.65;;;10.20;99.90;;;;;;10079507;28;20045;-69
2024/02/20 05:23:24;;;;;;;3.13;2.30;;;10.10;99.90;;;;;;10096547;28;20021;-69
2024/02/20 05:28:15;;;;;;;3.20;1.77;;;10.00;99.90;;;;;;10096223;28;20067;-68
2024/02/20 05:33:06;;;;;;;4.30;1.98;;;10.10;99.90;;;;;;10096145;28;20085;-67
2024/02/20 05:37:58;;;;;;;3.10;1.58;;;10.10;99.90;;;;;;10095947;28;20039;-69
2024/02/20 05:42:48;;;;;;;4.00;2.25;;;10.00;99.90;;;;;;10079221;28;20032;-68
2024/02/20 05:47:41;;;;;;;4.82;2.20;;;10.00;99.90;;;;;;10096811;28;20024;-68
2024/02/20 05:52:32;;;;;;;5.72;2.67;;;10.00;99.90;;;;;;10079319;28;20451;-68
2024/02/20 05:57:22;;;;;;;7.20;1.77;;;10.00;99.90;;;;;;10095545;28;20632;-68
2024/02/20 06:02:13;;;;;;;2.15;1.95;;;10.00;99.90;;;;;;10096150;28;20052;-69
2024/02/20 06:07:04;;;;;;;3.72;1.80;;;10.00;99.90;;;;;;10095098;28;20032;-67
2024/02/20 06:11:55;;;;;;;3.38;2.10;;;9.90;99.90;;;;;;10096568;28;20112;-67
2024/02/20 06:16:45;;;;;;;4.95;2.10;;;10.00;99.90;;;;;;10095784;28;20045;-67
2024/02/20 06:21:38;;;;;;;3.22;1.63;;;10.00;99.90;;;;;;10096963;28;20493;-66
2024/02/20 06:26:30;;;;;;;7.10;2.75;;;10.00;99.90;;;;;;10090909;28;20057;-67
2024/02/20 06:31:21;;;;;;;3.05;1.30;;;9.90;99.90;;;;;;10095769;28;20060;-65
2024/02/20 06:36:11;;;;;;;4.03;1.88;;;10.00;99.90;;;;;;10085906;28;20064;-68
2024/02/20 06:41:03;;;;;;;4.00;1.42;;;10.00;99.90;;;;;;10084396;28;20017;-67
2024/02/20 06:45:54;;;;;;;7.57;1.92;;;10.00;99.90;;;;;;10098314;28;20055;-68
2024/02/20 06:50:44;;;;;;;4.70;1.92;;;10.00;99.90;;;;;;10102023;28;20029;-68
2024/02/20 06:55:35;;;;;;;2.83;1.92;;;10.00;99.90;;;;;;10100548;28;20108;-68
2024/02/20 07:00:26;;;;;;;4.05;1.80;;;9.90;99.90;;;;;;10101515;28;20017;-68
2024/02/20 07:05:17;;;;;;;4.93;2.20;;;9.80;99.90;;;;;;10101200;28;20047;-69
2024/02/20 07:10:08;;;;;;;5.63;2.22;;;9.90;99.90;;;;;;10103705;28;20392;-69
2024/02/20 07:15:00;;;;;;;5.05;2.60;;;9.90;99.90;;;;;;10102036;28;20029;-68
2024/02/20 07:19:51;;;;;;;6.05;2.40;;;9.90;99.90;;;;;;10097824;28;20428;-67
2024/02/20 07:24:45;;;;;;;3.40;1.85;;;10.00;99.90;;;;;;10075598;28;20035;-67
2024/02/20 07:29:39;;;;;;;3.95;2.33;;;10.00;99.90;;;;;;10100877;28;20037;-67
2024/02/20 07:34:30;;;;;;;4.78;2.10;;;10.00;99.90;;;;;;10101195;28;20513;-67
2024/02/20 07:39:20;;;;;;;6.55;2.45;;;10.00;99.90;;;;;;10100603;28;20120;-70
2024/02/20 07:44:11;;;;;;;8.88;3.20;;;10.10;99.90;;;;;;10100078;28;20036;-69
2024/02/20 07:49:01;;;;;;;13.57;4.10;;;10.00;99.90;;;;;;10097769;28;20029;-69
2024/02/20 07:53:52;;;;;;;4.78;2.33;;;10.00;99.90;;;;;;10100646;28;20029;-68
2024/02/20 07:58:43;;;;;;;4.03;2.58;;;9.90;99.90;;;;;;10100092;28;20036;-68
2024/02/20 08:03:33;;;;;;;6.10;3.17;;;10.00;99.90;;;;;;10098439;28;20123;-68
2024/02/20 08:08:24;;;;;;;6.80;2.83;;;10.00;99.90;;;;;;10090334;28;20116;-67
2024/02/20 08:13:15;;;;;;;7.10;2.95;;;10.10;99.90;;;;;;10080204;28;20036;-68
2024/02/20 08:18:05;;;;;;;4.80;2.35;;;10.00;99.90;;;;;;10084249;28;20071;-69
2024/02/20 08:22:57;;;;;;;8.05;2.95;;;10.20;99.90;;;;;;10086715;28;20021;-70
2024/02/20 08:27:48;;;;;;;5.05;2.67;;;10.20;99.90;;;;;;10069189;28;21380;-69
2024/02/20 08:32:44;;;;;;;7.43;2.50;;;10.20;99.90;;;;;;10090639;28;20123;-69
2024/02/20 08:37:34;;;;;;;;;;;10.20;99.90;;;;;;10098304;28;20064;-69
2024/02/20 08:42:25;;;;;;;5.93;2.22;;;10.30;99.90;;;;;;10097325;28;19947;-69
2024/02/20 08:47:15;;;;;;;6.93;3.03;;;10.30;99.90;;;;;;10096963;28;20104;-69
2024/02/20 08:52:06;;;;;;;7.10;3.15;;;10.30;99.90;;;;;;10095306;28;20020;-69
2024/02/20 08:56:57;;;;;;;6.35;3.58;;;10.20;99.90;;;;;;10084583;28;20064;-68
2024/02/20 09:01:47;;;;;;;9.07;4.57;;;10.30;99.90;;;;;;10087995;28;20048;-69
2024/02/20 09:06:38;;;;;;;5.85;3.15;;;10.30;99.90;;;;;;10064623;28;20029;-67
2024/02/20 09:11:29;;;;;;;6.25;3.67;;;10.30;99.90;;;;;;10072191;28;20028;-68
2024/02/20 09:16:20;;;;;;;6.35;4.00;;;10.20;99.90;;;;;;10097318;28;20498;-69
2024/02/20 09:21:16;;;;;;;6.70;3.58;;;10.20;99.90;;;;;;10094617;28;20059;-70
2024/02/20 09:26:06;;;;;;;9.13;3.63;;;10.30;99.90;;;;;;10066549;28;20164;-67
2024/02/20 09:30:57;;;;;;;9.07;3.40;;;10.40;99.90;;;;;;10088561;28;20101;-68
2024/02/20 09:35:48;;;;;;;8.05;4.13;;;10.40;99.90;;;;;;10094959;28;20047;-68
2024/02/20 09:40:39;;;;;;;6.28;3.63;;;10.50;99.90;;;;;;10064940;28;20478;-68
2024/02/20 09:45:32;;;;;;;11.75;3.58;;;10.50;99.90;;;;;;10088393;28;20031;-69
2024/02/20 09:50:24;;;;;;;8.77;3.97;;;10.70;99.90;;;;;;10082668;28;20044;-67
2024/02/20 09:55:18;;;;;;;9.18;3.67;;;10.70;99.90;;;;;;10080964;28;20485;-67
2024/02/20 10:00:10;;;;;;;9.02;3.15;;;10.80;99.90;;;;;;10085839;28;20045;-67
2024/02/20 10:05:03;;;;;;;7.15;4.15;;;10.90;99.90;;;;;;10075649;28;20032;-68
2024/02/20 10:09:54;;;;;;;11.95;3.80;;;10.90;99.90;;;;;;10083594;28;20105;-67
2024/02/20 10:14:45;;;;;;;13.07;4.47;;;10.90;99.90;;;;;;10083805;28;20025;-66
2024/02/20 10:19:36;;;;;;;6.45;3.45;;;10.90;99.90;;;;;;10082064;28;20040;-68
2024/02/20 10:24:26;;;;;;;9.05;3.67;;;11.00;99.90;;;;;;10072642;28;20017;-67
2024/02/20 10:29:17;;;;;;;9.60;3.78;;;11.00;99.90;;;;;;10091545;28;20517;-68
2024/02/20 10:34:08;;;;;;;5.95;2.80;;;11.00;99.90;;;;;;10088450;28;20025;-68
2024/02/20 10:39:10;;;;;;;9.88;3.35;;;11.20;99.90;;;;;;10095500;28;20498;-70
2024/02/20 10:44:03;;;;;;;7.88;3.45;;;11.30;99.90;;;;;;10097819;28;20064;-67
2024/02/20 10:48:58;;;;;;;5.88;2.97;;;11.30;99.90;;;;;;10102654;28;20106;-66
2024/02/20 10:53:50;;;;;;;8.98;2.58;;;11.20;99.90;;;;;;10097565;28;20032;-68
2024/02/20 10:58:45;;;;;;;9.07;3.58;;;11.30;99.90;;;;;;10092904;28;20042;-67
2024/02/20 11:03:37;;;;;;;8.05;3.13;;;11.30;99.90;;;;;;10099335;28;20033;-66
2024/02/20 11:08:28;;;;;;;5.55;2.55;;;11.30;99.90;;;;;;10098673;28;20486;-68
2024/02/20 11:13:27;;;;;;;8.20;3.13;;;11.40;99.90;;;;;;10098127;28;20554;-67
2024/02/20 11:18:20;;;;;;;11.48;3.63;;;11.30;99.90;;;;;;10080963;28;20036;-67
2024/02/20 11:23:11;;;;;;;6.35;2.88;;;11.30;99.90;;;;;;10101384;28;20028;-68
2024/02/20 11:28:14;;;;;;;8.82;2.60;;;11.50;99.90;;;;;;10097381;28;20052;-67
2024/02/20 11:33:15;;;;;;;8.10;3.70;;;11.60;99.90;;;;;;10098855;28;20021;-66
2024/02/20 11:38:09;;;;;;;13.43;3.22;;;11.60;99.90;;;;;;10082129;28;20095;-66
2024/02/20 11:43:05;;;;;;;5.22;2.58;;;11.70;99.90;;;;;;10100018;28;20053;-66
2024/02/20 11:48:01;;;;;;;6.53;2.63;;;11.50;99.90;;;;;;10099833;28;20061;-66
2024/02/20 11:53:05;;;;;;;6.82;2.38;;;11.50;99.90;;;;;;10094853;28;20029;-65
2024/02/20 11:57:56;;;;;;;7.30;2.63;;;11.50;99.90;;;;;;10096998;28;20486;-65
2024/02/20 12:02:47;;;;;;;8.35;2.63;;;11.50;99.90;;;;;;10099217;28;20086;-67
2024/02/20 12:07:39;;;;;;;6.05;2.83;;;11.60;99.90;;;;;;10081091;28;20025;-66
2024/02/20 12:12:30;;;;;;;6.38;2.75;;;11.50;99.90;;;;;;10099438;28;20132;-65
2024/02/20 12:17:24;;;;;;;8.27;2.60;;;11.50;99.90;;;;;;10098282;28;20127;-65
2024/02/20 12:22:18;;;;;;;8.35;2.67;;;11.50;99.90;;;;;;10098750;28;20056;-65
2024/02/20 12:27:13;;;;;;;5.55;2.95;;;11.60;99.90;;;;;;10089002;28;20080;-66
2024/02/20 12:32:04;;;;;;;4.95;2.53;;;11.70;99.90;;;;;;10098853;28;20021;-66
2024/02/20 12:36:54;;;;;;;6.35;3.10;;;11.80;99.90;;;;;;10097912;28;20583;-66
2024/02/20 12:41:45;;;;;;;5.47;2.08;;;11.90;99.90;;;;;;10099823;28;20592;-66
2024/02/20 12:46:36;;;;;;;5.63;2.63;;;12.10;99.90;;;;;;10096923;28;20036;-66
2024/02/20 12:51:27;;;;;;;6.38;2.33;;;12.20;99.90;;;;;;10087118;28;20501;-66
2024/02/20 12:56:18;;;;;;;9.65;3.55;;;12.20;99.90;;;;;;10096530;28;20059;-68
2024/02/20 13:01:08;;;;;;;3.63;2.10;;;12.30;99.90;;;;;;10091239;28;20025;-68
2024/02/20 13:05:59;;;;;;;10.07;3.05;;;12.40;99.90;;;;;;10083613;28;20490;-67
2024/02/20 13:10:50;;;;;;;5.35;2.67;;;12.60;99.90;;;;;;10088335;28;20108;-71
2024/02/20 13:15:40;;;;;;;5.10;2.67;;;12.80;99.90;;;;;;10089017;28;20486;-68
2024/02/20 13:20:32;;;;;;;9.30;3.25;;;12.70;99.90;;;;;;10088850;28;20562;-70
2024/02/20 13:25:23;;;;;;;9.43;2.88;;;12.70;99.90;;;;;;10079063;28;20040;-68
2024/02/20 13:30:14;;;;;;;10.27;3.88;;;12.80;99.90;;;;;;10081706;28;20132;-68
2024/02/20 13:35:05;;;;;;;6.45;2.83;;;12.60;99.90;;;;;;10093877;28;20035;-78
2024/02/20 13:39:56;;;;;;;7.63;3.30;;;12.50;99.90;;;;;;10075008;28;20041;-76
2024/02/20 13:44:47;;;;;;;8.10;3.30;;;12.40;99.90;;;;;;10101691;28;20029;-78
2024/02/20 13:49:38;;;;;;;5.63;2.63;;;12.30;99.90;;;;;;10088173;28;20033;-80
2024/02/20 13:54:29;;;;;;;6.30;2.75;;;12.30;99.90;;;;;;10101727;28;20640;-78
2024/02/20 13:59:20;;;;;;;12.10;4.07;;;12.40;99.90;;;;;;10099897;28;20034;-79
2024/02/20 14:04:11;;;;;;;7.55;3.20;;;12.50;99.90;;;;;;10088820;28;20034;-69
2024/02/20 14:09:04;;;;;;;11.98;2.85;;;12.50;99.90;;;;;;10093640;28;20683;-73
2024/02/20 14:13:54;;;;;;;4.97;3.03;;;12.40;99.90;;;;;;10084179;28;20029;-84
2024/02/20 14:18:45;;;;;;;6.88;2.90;;;12.40;99.90;;;;;;10087706;28;20036;-71
2024/02/20 14:23:36;;;;;;;9.45;3.90;;;12.50;99.90;;;;;;10072316;28;20037;-69
2024/02/20 14:28:27;;;;;;;4.53;2.83;;;12.90;99.90;;;;;;10062656;28;20536;-68
2024/02/20 14:33:20;;;;;;;8.18;3.35;;;13.20;99.90;;;;;;10080923;28;20029;-68
2024/02/20 14:38:12;;;;;;;6.15;2.58;;;13.20;99.90;;;;;;10086418;28;20064;-70
2024/02/20 14:43:03;;;;;;;6.70;2.47;;;13.30;99.90;;;;;;10085033;28;20028;-69
2024/02/20 14:47:54;;;;;;;9.57;2.38;;;13.40;99.90;;;;;;10082284;28;20053;-69
2024/02/20 14:52:45;;;;;;;6.38;2.70;;;13.50;99.90;;;;;;10079252;28;20055;-79
2024/02/20 14:57:36;;;;;;;11.50;2.55;;;13.80;99.90;;;;;;10086911;28;20044;-74
2024/02/20 15:02:27;;;;;;;4.45;1.88;;;13.70;99.90;;;;;;10095065;28;20032;-76
2024/02/20 15:07:17;;;;;;;5.85;1.77;;;13.60;99.90;;;;;;10098241;28;20037;-76
2024/02/20 15:12:21;;;;;;;4.88;2.25;;;13.70;99.90;;;;;;10093166;28;20056;-70
2024/02/20 15:17:12;;;;;;;3.65;1.95;;;13.50;99.90;;;;;;10104846;28;20487;-73
2024/02/20 15:22:03;;;;;;;10.40;2.55;;;13.50;99.90;;;;;;10096987;28;20112;-67
2024/02/20 15:26:53;;;;;;;6.07;2.10;;;13.50;99.90;;;;;;10101289;28;20053;-66
2024/02/20 15:31:44;;;;;;;5.43;2.45;;;13.60;99.90;;;;;;10100608;28;20029;-67
2024/02/20 15:36:35;;;;;;;6.53;2.17;;;13.50;99.90;;;;;;10082019;28;20047;-67
2024/02/20 15:41:25;;;;;;;6.95;2.83;;;13.50;99.90;;;;;;10103378;28;20029;-67
2024/02/20 15:46:17;;;;;;;5.13;2.42;;;13.50;99.90;;;;;;10099976;28;20025;-67
2024/02/20 15:51:09;;;;;;;7.10;2.42;;;13.50;99.90;;;;;;10099962;28;20024;-67
2024/02/20 15:56:00;;;;;;;8.68;2.15;;;13.40;99.90;;;;;;10102592;28;20074;-68
2024/02/20 16:00:52;;;;;;;5.45;2.20;;;13.40;99.90;;;;;;10099863;28;20047;-66
2024/02/20 16:05:43;;;;;;;6.10;1.92;;;13.30;99.90;;;;;;10098191;28;20150;-68
2024/02/20 16:10:34;;;;;;;5.38;2.63;;;13.40;99.90;;;;;;10099288;28;20117;-69
2024/02/20 16:15:26;;;;;;;4.95;1.80;;;13.30;99.90;;;;;;10098325;28;20064;-66
2024/02/20 16:20:17;;;;;;;5.90;1.98;;;13.30;99.90;;;;;;10098085;28;20529;-65
2024/02/20 16:25:08;;;;;;;4.28;1.90;;;13.20;99.90;;;;;;10098623;28;20079;-68
2024/02/20 16:29:59;;;;;;;3.08;1.73;;;13.10;99.90;;;;;;10098207;28;20063;-66
2024/02/20 16:34:50;;;;;;;4.63;1.70;;;13.00;99.90;;;;;;10078968;28;20032;-67
2024/02/20 16:39:40;;;;;;;4.22;1.88;;;13.00;99.90;;;;;;10098643;28;20047;-69
2024/02/20 16:44:31;;;;;;;6.13;1.85;;;12.90;99.90;;;;;;10079682;28;20108;-68
2024/02/20 16:49:22;;;;;;;9.90;2.28;;;12.90;99.90;;;;;;10097393;28;20025;-66
2024/02/20 16:54:12;;;;;;;3.75;2.03;;;12.90;99.90;;;;;;10096982;28;20056;-68
2024/02/20 16:59:03;;;;;;;3.83;1.80;;;12.90;99.90;;;;;;10094337;28;20525;-66
2024/02/20 17:03:54;;;;;;;4.70;1.92;;;12.80;99.90;;;;;;10098113;28;21371;-69
2024/02/20 17:08:44;;;;;;;5.60;1.83;;;12.80;99.90;;;;;;10095163;28;20024;-65
2024/02/20 17:13:35;;;;;;;5.00;2.15;;;12.80;99.90;;;;;;10095885;28;20033;-64
2024/02/20 17:18:29;;;;;;;4.57;1.98;;;12.80;99.90;;;;;;10096201;28;20063;-68
2024/02/20 17:23:20;;;;;;;8.32;2.38;;;12.80;99.90;;;;;;10096852;28;20056;-65
2024/02/20 17:28:11;;;;;;;6.97;2.22;;;12.70;99.90;;;;;;10095956;28;20182;-67
2024/02/20 17:33:02;;;;;;;6.18;2.95;;;12.70;99.90;;;;;;10096758;28;20139;-67
2024/02/20 17:37:53;;;;;;;5.70;2.63;;;12.70;99.90;;;;;;10095893;28;20036;-68
2024/02/20 17:42:43;;;;;;;6.82;2.28;;;12.70;99.90;;;;;;10095081;28;20029;-67
2024/02/20 17:47:34;;;;;;;4.40;2.10;;;12.60;99.90;;;;;;10099869;28;20033;-69
2024/02/20 17:52:24;;;;;;;4.90;2.13;;;12.60;99.90;;;;;;10095841;28;20029;-66
2024/02/20 17:57:16;;;;;;;5.45;2.20;;;12.70;99.90;;;;;;10093568;28;20065;-66
2024/02/20 18:02:07;;;;;;;9.05;3.45;;;12.60;99.90;;;;;;10095444;28;20082;-67
2024/02/20 18:06:57;;;;;;;5.43;2.45;;;12.50;99.90;;;;;;10079106;28;20035;-64
2024/02/20 18:11:48;;;;;;;9.73;3.35;;;12.50;99.90;;;;;;10096415;28;20025;-64
2024/02/20 18:16:38;;;;;;;8.70;3.13;;;12.50;99.90;;;;;;10095456;28;20047;-65
2024/02/20 18:21:29;;;;;;;6.50;2.75;;;12.50;99.90;;;;;;10089474;28;20571;-67
2024/02/20 18:26:20;;;;;;;6.13;3.33;;;12.50;99.90;;;;;;10081525;28;20053;-65
2024/02/20 18:31:11;;;;;;;6.00;3.20;;;12.40;99.90;;;;;;10090337;28;20448;-69
2024/02/20 18:36:02;;;;;;;8.73;3.35;;;12.40;99.90;;;;;;10089262;28;20107;-66
2024/02/20 18:40:53;;;;;;;6.13;3.35;;;12.30;99.90;;;;;;10078886;28;20025;-65
2024/02/20 18:45:43;;;;;;;8.00;3.53;;;12.30;99.90;;;;;;10103077;28;20033;-66
2024/02/20 18:50:34;;;;;;;8.77;3.40;;;12.20;99.90;;;;;;10103052;28;20043;-65
2024/02/20 18:55:25;;;;;;;11.50;3.20;;;12.20;99.90;;;;;;10095883;28;20028;-66
2024/02/20 19:00:15;;;;;;;8.23;2.80;;;12.10;99.90;;;;;;10111569;28;20036;-65
2024/02/20 19:05:06;;;;;;;5.70;2.45;;;12.20;99.90;;;;;;10083991;28;20032;-65
2024/02/20 19:09:57;;;;;;;5.30;2.60;;;12.20;99.90;;;;;;10102282;28;20032;-67
2024/02/20 19:14:48;;;;;;;7.18;3.15;;;12.20;99.90;;;;;;10102126;28;21129;-65
2024/02/20 19:19:39;;;;;;;6.05;2.58;;;12.20;99.90;;;;;;10083887;28;20041;-65
2024/02/20 19:24:29;;;;;;;3.75;2.47;;;12.10;99.90;;;;;;10102803;28;20017;-64
2024/02/20 19:29:25;;;;;;;10.40;3.30;;;12.00;99.90;;;;;;10100964;28;20744;-66
2024/02/20 19:34:15;;;;;;;9.32;3.88;;;12.00;99.90;;;;;;10101193;28;20033;-66
2024/02/20 19:39:06;;;;;;;8.70;3.47;;;12.00;99.90;;;;;;10099418;28;20104;-66
2024/02/20 19:43:57;;;;;;;9.35;3.72;;;12.00;99.90;;;;;;10099491;28;20021;-66
2024/02/20 19:48:48;;;;;;;9.50;3.63;;;12.10;99.90;;;;;;10099761;28;20094;-66
2024/02/20 19:53:38;;;;;;;6.75;3.72;;;12.00;99.90;;;;;;10101248;28;20029;-67
2024/02/20 19:58:30;;;;;;;9.55;4.10;;;11.90;99.90;;;;;;10108886;28;20037;-65
2024/02/20 20:03:23;;;;;;;10.35;4.20;;;11.90;99.90;;;;;;10100194;28;20047;-65
2024/02/20 20:08:14;;;;;;;5.90;3.95;;;11.90;99.90;;;;;;10107417;28;20479;-66
2024/02/20 20:13:05;;;;;;;7.82;4.45;;;11.90;99.90;;;;;;10100096;28;20025;-67
2024/02/20 20:17:55;;;;;;;10.75;4.07;;;11.80;99.90;;;;;;10099286;28;20439;-67
2024/02/20 20:22:46;;;;;;;9.63;3.92;;;11.80;99.90;;;;;;10099512;28;20387;-67
2024/02/20 20:27:36;;;;;;;6.75;4.35;;;11.80;99.90;;;;;;10099080;28;20056;-68
2024/02/20 20:32:27;;;;;;;11.40;4.90;;;11.70;99.90;;;;;;10099225;28;20032;-66
2024/02/20 20:37:22;;;;;;;9.50;4.03;;;11.70;99.90;;;;;;10098823;28;20068;-66
2024/02/20 20:42:12;;;;;;;12.73;5.35;;;11.70;99.90;;;;;;10099097;28;20474;-67
2024/02/20 20:47:03;;;;;;;8.20;4.85;;;11.70;99.90;;;;;;10091241;28;20025;-65
2024/02/20 20:51:54;;;;;;;9.30;4.45;;;11.70;99.90;;;;;;10093136;28;20091;-66
2024/02/20 20:56:45;;;;;;;10.15;4.75;;;11.60;99.90;;;;;;10097590;28;20116;-67
2024/02/20 21:01:35;;;;;;;11.77;4.38;;;11.70;99.90;;;;;;10098475;28;20390;-66
2024/02/20 21:06:26;;;;;;;9.45;4.38;;;11.60;99.90;;;;;;10088556;28;20116;-68
2024/02/20 21:11:17;;;;;;;12.75;4.70;;;11.50;99.90;;;;;;10096587;28;20037;-66
2024/02/20 21:16:07;;;;;;;13.98;5.10;;;11.50;99.90;;;;;;10097232;28;20453;-66
2024/02/20 21:21:01;;;;;;;6.45;4.22;;;11.50;99.90;;;;;;10099995;28;20115;-65
2024/02/20 21:25:51;;;;;;;13.88;5.30;;;11.60;99.90;;;;;;10097315;28;20199;-66
2024/02/20 21:30:43;;;;;;;9.70;5.35;;;11.50;99.90;;;;;;10097206;28;20171;-66
2024/02/20 21:35:34;;;;;;;10.77;4.80;;;11.40;99.90;;;;;;10096878;28;20033;-66
2024/02/20 21:40:25;;;;;;;9.43;5.00;;;11.40;99.90;;;;;;10096601;28;20035;-67
2024/02/20 21:45:16;;;;;;;5.20;3.60;;;11.40;99.90;;;;;;10088996;28;20029;-65
2024/02/20 21:50:07;;;;;;;7.82;4.13;;;11.40;99.90;;;;;;10096450;28;20036;-67
2024/02/20 21:54:57;;;;;;;8.23;3.85;;;11.30;99.90;;;;;;10086388;28;20405;-66
2024/02/20 21:59:48;;;;;;;7.07;2.67;;;11.30;99.90;;;;;;10096881;28;20116;-67
2024/02/20 22:04:39;;;;;;;7.75;3.35;;;11.30;99.90;;;;;;10095461;28;20033;-66
2024/02/20 22:09:29;;;;;;;4.97;3.55;;;11.20;99.90;;;;;;10096134;28;20464;-66
2024/02/20 22:14:20;;;;;;;9.65;3.47;;;11.20;99.90;;;;;;10098819;28;20021;-65
2024/02/20 22:19:10;;;;;;;8.38;3.60;;;11.20;99.90;;;;;;10102719;28;20037;-67
2024/02/20 22:24:01;;;;;;;7.35;3.35;;;11.00;99.90;;;;;;10103338;28;20052;-67
2024/02/20 22:28:52;;;;;;;5.65;3.35;;;11.10;99.90;;;;;;10085304;28;20053;-66
2024/02/20 22:33:43;;;;;;;9.65;3.67;;;11.10;99.90;;;;;;10085699;28;20498;-66
2024/02/20 22:38:34;;;;;;;9.07;2.90;;;11.10;99.90;;;;;;10103159;28;20044;-66
2024/02/20 22:43:24;;;;;;;8.68;3.20;;;11.10;99.90;;;;;;10105958;28;20048;-66
2024/02/20 22:48:15;;;;;;;8.15;4.00;;;11.10;99.90;;;;;;10103761;28;20087;-66
2024/02/20 22:53:05;;;;;;;5.57;3.20;;;11.00;99.90;;;;;;10102886;28;20021;-65
2024/02/20 22:57:57;;;;;;;8.00;3.95;;;11.00;99.90;;;;;;10104181;28;20037;-67
2024/02/20 23:02:47;;;;;;;4.72;3.33;;;11.00;99.90;;;;;;10102673;28;20557;-66
2024/02/20 23:07:38;;;;;;;8.70;3.70;;;11.00;99.90;;;;;;10085044;28;20025;-66
2024/02/20 23:12:29;;;;;;;6.22;3.15;;;11.00;99.90;;;;;;10105067;28;20448;-66
2024/02/20 23:17:20;;;;;;;9.90;3.47;;;10.90;99.90;;;;;;10102208;28;20123;-66
2024/02/20 23:22:10;;;;;;;4.82;2.92;;;10.90;99.90;;;;;;10103073;28;20036;-65
2024/02/20 23:27:01;;;;;;;6.00;2.83;;;10.90;99.90;;;;;;10108429;28;20056;-66
2024/02/20 23:31:51;;;;;;;6.72;3.00;;;10.90;99.90;;;;;;10101869;28;20167;-67
2024/02/20 23:36:42;;;;;;;5.20;2.80;;;10.90;99.90;;;;;;10101054;28;20048;-67
2024/02/20 23:41:33;;;;;;;5.28;2.97;;;10.80;99.90;;;;;;10101587;28;20025;-67
2024/02/20 23:46:23;;;;;;;6.63;3.03;;;10.90;99.90;;;;;;10100875;28;20415;-66
2024/02/20 23:51:14;;;;;;;4.97;2.90;;;10.80;99.90;;;;;;10100650;28;20103;-65
2024/02/20 23:56:05;;;;;;;6.60;2.70;;;10.80;99.90;;;;;;10098880;28;20421;-66
